createdAt,value
2023-01-02T00:01:33.448Z,15.57
2023-01-02T00:04:01.239Z,14.27
2023-01-02T00:06:38.949Z,24.17
2023-01-02T00:09:07.857Z,16.90
2023-01-02T00:11:35.809Z,21.03
2023-01-02T00:14:03.588Z,20.23
2023-01-02T00:16:31.393Z,44.07
2023-01-02T00:19:01.445Z,35.97
2023-01-02T00:21:29.072Z,34.00
2023-01-02T00:23:56.720Z,20.27
2023-01-02T00:26:24.375Z,28.37
2023-01-02T00:28:51.959Z,24.47
2023-01-02T00:31:19.621Z,19.10
2023-01-02T00:33:47.337Z,19.47
2023-01-02T00:36:15.059Z,20.70
2023-01-02T00:38:42.698Z,13.90
2023-01-02T00:41:10.681Z,17.20
2023-01-02T00:43:38.287Z,16.13
2023-01-02T00:46:11.633Z,15.47
2023-01-02T00:48:40.660Z,15.73
2023-01-02T00:51:09.037Z,15.07
2023-01-02T00:53:37.202Z,13.93
2023-01-02T00:56:09.864Z,13.30
2023-01-02T00:58:37.561Z,14.33
2023-01-02T01:01:08.159Z,17.50
2023-01-02T01:03:35.837Z,13.80
2023-01-02T01:06:08.398Z,12.97
2023-01-02T01:08:38.065Z,10.77
2023-01-02T01:11:11.230Z,9.70
2023-01-02T01:13:40.245Z,8.90
2023-01-02T01:16:11.854Z,10.80
2023-01-02T01:18:40.116Z,11.67
2023-01-02T01:21:20.262Z,17.17
2023-01-02T01:23:52.221Z,18.43
2023-01-02T01:26:21.043Z,13.90
2023-01-02T01:28:49.123Z,17.93
2023-01-02T01:31:17.050Z,24.03
2023-01-02T01:33:45.539Z,11.87
2023-01-02T01:36:18.842Z,13.93
2023-01-02T01:38:47.194Z,21.27
2023-01-02T01:41:17.731Z,32.10
2023-01-02T01:43:51.203Z,18.87
2023-01-02T01:46:44.727Z,37.43
2023-01-02T01:49:29.515Z,19.73
2023-01-02T01:52:03.710Z,17.30
2023-01-02T01:54:40.295Z,25.73
2023-01-02T01:57:35.152Z,17.07
2023-01-02T02:00:04.034Z,21.60
2023-01-02T02:02:33.227Z,24.80
2023-01-02T02:05:04.824Z,18.50
2023-01-02T02:07:34.813Z,25.37
2023-01-02T02:10:07.767Z,25.50
2023-01-02T02:12:37.721Z,20.03
2023-01-02T02:15:09.666Z,16.63
2023-01-02T02:17:50.160Z,12.87
2023-01-02T02:20:31.188Z,20.23
2023-01-02T02:23:24.913Z,12.03
2023-01-02T02:26:11.326Z,12.00
2023-01-02T02:28:57.309Z,10.50
2023-01-02T02:31:42.918Z,15.43
2023-01-02T02:34:21.450Z,10.17
2023-01-02T02:36:57.745Z,12.43
2023-01-02T02:39:40.483Z,10.30
2023-01-02T02:42:25.793Z,11.10
2023-01-02T02:45:04.817Z,9.37
2023-01-02T02:47:44.531Z,8.70
2023-01-02T02:50:25.521Z,15.27
2023-01-02T02:53:00.589Z,13.83
2023-01-02T02:55:51.160Z,8.10
2023-01-02T02:58:20.297Z,11.67
2023-01-02T03:00:48.187Z,11.90
2023-01-02T03:03:20.983Z,10.43
2023-01-02T03:06:31.137Z,12.23
2023-01-02T03:09:28.432Z,9.67
2023-01-02T03:12:08.074Z,12.27
2023-01-02T03:14:53.891Z,11.30
2023-01-02T03:17:40.162Z,13.20
2023-01-02T03:20:13.121Z,14.60
2023-01-02T03:22:46.371Z,13.53
2023-01-02T03:25:15.563Z,13.30
2023-01-02T03:27:49.315Z,13.87
2023-01-02T03:30:20.164Z,14.50
2023-01-02T03:32:54.376Z,15.60
2023-01-02T03:35:26.803Z,10.50
2023-01-02T03:37:58.122Z,11.17
2023-01-02T03:40:30.806Z,11.47
2023-01-02T03:43:05.305Z,9.97
2023-01-02T03:45:38.443Z,9.57
2023-01-02T03:48:23.965Z,9.63
2023-01-02T03:50:55.379Z,10.07
2023-01-02T03:53:23.630Z,12.63
2023-01-02T03:56:07.188Z,11.23
2023-01-02T03:58:56.614Z,11.80
2023-01-02T04:01:43.946Z,13.43
2023-01-02T04:04:50.209Z,11.93
2023-01-02T04:07:38.725Z,14.13
2023-01-02T04:10:09.085Z,19.27
2023-01-02T04:12:43.029Z,21.07
2023-01-02T04:15:13.996Z,23.97
2023-01-02T04:17:49.730Z,26.73
2023-01-02T04:20:23.442Z,20.77
2023-01-02T04:23:17.331Z,25.73
2023-01-02T04:26:00.119Z,16.07
2023-01-02T04:28:30.968Z,18.80
2023-01-02T04:31:07.951Z,13.53
2023-01-02T04:33:40.002Z,34.93
2023-01-02T04:36:13.245Z,37.77
2023-01-02T04:38:45.047Z,35.40
2023-01-02T04:41:17.427Z,32.43
2023-01-02T04:43:45.008Z,25.53
2023-01-02T04:46:12.607Z,25.17
2023-01-02T04:48:40.270Z,16.53
2023-01-02T04:51:07.839Z,16.83
2023-01-02T04:53:35.443Z,16.30
2023-01-02T04:56:03.097Z,18.73
2023-01-02T04:58:30.712Z,14.23
2023-01-02T05:00:58.808Z,12.57
2023-01-02T05:03:26.587Z,10.73
2023-01-02T05:06:01.471Z,11.47
2023-01-02T05:08:29.785Z,10.60
2023-01-02T05:10:57.472Z,12.60
2023-01-02T05:13:25.072Z,14.27
2023-01-02T05:15:58.700Z,20.60
2023-01-02T05:18:31.453Z,22.07
2023-01-02T05:21:45.984Z,19.27
2023-01-02T05:24:13.680Z,21.13
2023-01-02T05:26:41.316Z,16.00
2023-01-02T05:29:08.898Z,19.80
2023-01-02T05:31:36.532Z,25.63
2023-01-02T05:34:06.447Z,19.60
2023-01-02T05:36:34.052Z,14.30
2023-01-02T05:39:01.744Z,16.87
2023-01-02T05:41:31.708Z,17.73
2023-01-02T05:43:59.261Z,13.13
2023-01-02T05:46:26.910Z,13.10
2023-01-02T05:48:54.538Z,12.03
2023-01-02T05:51:22.330Z,15.47
2023-01-02T05:53:50.839Z,10.03
2023-01-02T05:56:18.941Z,10.17
2023-01-02T05:58:50.409Z,11.93
2023-01-02T06:01:21.210Z,12.70
2023-01-02T06:03:50.662Z,12.63
2023-01-02T06:06:21.216Z,15.70
2023-01-02T06:08:48.829Z,14.57
2023-01-02T06:11:16.490Z,13.73
2023-01-02T06:13:46.491Z,12.10
2023-01-02T06:16:14.209Z,11.87
2023-01-02T06:18:42.205Z,12.17
2023-01-02T06:21:12.793Z,15.03
2023-01-02T06:23:41.270Z,15.13
2023-01-02T06:26:17.285Z,13.83
2023-01-02T06:28:45.956Z,18.00
2023-01-02T06:31:15.932Z,14.83
2023-01-02T06:33:44.321Z,15.90
2023-01-02T06:36:17.090Z,13.37
2023-01-02T06:38:45.616Z,16.77
2023-01-02T06:41:14.130Z,12.80
2023-01-02T06:43:46.755Z,12.60
2023-01-02T06:46:15.733Z,12.77
2023-01-02T06:48:44.225Z,11.70
2023-01-02T06:51:15.109Z,14.07
2023-01-02T06:53:43.924Z,11.30
2023-01-02T06:56:13.191Z,15.07
2023-01-02T06:58:43.949Z,15.97
2023-01-02T07:01:18.456Z,13.90
2023-01-02T07:03:46.406Z,13.37
2023-01-02T07:06:17.309Z,14.43
2023-01-02T07:08:48.808Z,13.77
2023-01-02T07:11:20.569Z,17.47
2023-01-02T07:13:50.219Z,14.97
2023-01-02T07:16:19.517Z,10.73
2023-01-02T07:18:47.618Z,10.87
2023-01-02T07:21:18.026Z,14.57
2023-01-02T07:23:45.689Z,14.63
2023-01-02T07:26:13.787Z,14.17
2023-01-02T07:28:41.586Z,18.37
2023-01-02T07:31:13.024Z,13.97
2023-01-02T07:33:40.849Z,12.83
2023-01-02T07:36:12.057Z,17.20
2023-01-02T07:38:39.932Z,11.73
2023-01-02T07:41:18.815Z,14.03
2023-01-02T07:43:47.668Z,14.83
2023-01-02T07:46:17.712Z,14.67
2023-01-02T07:48:48.275Z,18.03
2023-01-02T07:51:19.797Z,12.40
2023-01-02T07:53:52.293Z,14.23
2023-01-02T07:56:19.937Z,12.17
2023-01-02T07:58:47.558Z,11.53
2023-01-02T08:01:15.456Z,15.23
2023-01-02T08:03:43.789Z,11.33
2023-01-02T08:06:16.285Z,13.90
2023-01-02T08:08:44.327Z,11.07
2023-01-02T08:11:14.869Z,12.27
2023-01-02T08:13:42.837Z,14.27
2023-01-02T08:16:16.301Z,14.97
2023-01-02T08:18:44.815Z,16.27
2023-01-02T08:21:13.428Z,12.10
2023-01-02T08:23:41.075Z,14.53
2023-01-02T08:26:09.891Z,13.07
2023-01-02T08:28:38.911Z,18.53
2023-01-02T08:31:24.403Z,14.20
2023-01-02T08:33:52.121Z,13.87
2023-01-02T08:36:19.920Z,13.93
2023-01-02T08:38:47.688Z,14.83
2023-01-02T08:41:15.471Z,14.83
2023-01-02T08:43:43.163Z,14.73
2023-01-02T08:46:11.025Z,16.47
2023-01-02T08:48:38.756Z,15.77
2023-01-02T08:51:06.456Z,15.57
2023-01-02T08:53:34.111Z,13.37
2023-01-02T08:56:22.188Z,14.23
2023-01-02T08:58:54.656Z,13.47
2023-01-02T09:01:24.372Z,14.20
2023-01-02T09:03:53.017Z,13.67
2023-01-02T09:06:22.578Z,13.97
2023-01-02T09:08:52.863Z,15.13
2023-01-02T09:11:23.838Z,16.57
2023-01-02T09:13:52.217Z,13.17
2023-01-02T09:16:19.969Z,12.33
2023-01-02T09:18:47.809Z,17.90
2023-01-02T09:21:15.440Z,14.10
2023-01-02T09:23:43.141Z,18.73
2023-01-02T09:26:12.371Z,15.97
2023-01-02T09:28:40.061Z,14.10
2023-01-02T09:31:12.244Z,13.97
2023-01-02T09:33:44.953Z,12.30
2023-01-02T09:36:15.502Z,15.13
2023-01-02T09:38:43.620Z,16.93
2023-01-02T09:41:32.975Z,14.97
2023-01-02T09:44:11.353Z,18.73
2023-01-02T09:47:02.420Z,17.57
2023-01-02T09:49:40.578Z,19.30
2023-01-02T09:52:13.078Z,21.57
2023-01-02T09:54:40.821Z,19.20
2023-01-02T09:57:26.818Z,17.80
2023-01-02T10:00:22.970Z,14.67
2023-01-02T10:03:31.988Z,22.17
2023-01-02T10:06:12.119Z,20.93
2023-01-02T10:08:59.999Z,16.17
2023-01-02T10:11:42.706Z,24.63
2023-01-02T10:14:40.224Z,17.90
2023-01-02T10:17:17.445Z,13.85
2023-01-02T10:20:06.939Z,15.30
2023-01-02T10:22:59.494Z,12.83
2023-01-02T10:25:53.041Z,10.00
2023-01-02T10:28:34.152Z,10.73
2023-01-02T10:31:21.112Z,9.20
2023-01-02T10:34:00.160Z,8.97
2023-01-02T10:36:27.797Z,8.03
2023-01-02T10:39:01.202Z,7.97
2023-01-02T10:41:30.421Z,10.53
2023-01-02T10:44:07.627Z,9.90
2023-01-02T10:46:37.273Z,9.10
2023-01-02T10:49:07.154Z,15.33
2023-01-02T10:55:40.605Z,12.60
2023-01-02T10:59:39.886Z,5.40
2023-01-02T11:07:03.551Z,11.57
2023-01-02T11:17:29.525Z,8.43
2023-01-02T11:20:27.201Z,7.43
2023-01-02T11:48:47.371Z,8.03
2023-01-02T11:55:27.927Z,7.03
2023-01-02T11:58:54.232Z,7.67
2023-01-02T12:02:47.243Z,8.67
2023-01-02T12:06:28.411Z,8.80
2023-01-02T12:17:43.894Z,10.40
2023-01-02T12:21:35.911Z,6.63
2023-01-02T12:25:12.174Z,6.57
2023-01-02T12:32:36.347Z,6.67
2023-01-02T12:36:05.239Z,10.80
2023-01-02T12:39:31.156Z,5.63
2023-01-02T12:43:14.388Z,7.70
2023-01-02T12:51:58.854Z,12.23
2023-01-02T12:56:04.145Z,8.83
2023-01-02T13:06:43.889Z,11.90
2023-01-02T13:09:06.397Z,13.20
2023-01-02T13:11:54.709Z,10.43
2023-01-02T13:14:58.556Z,9.90
2023-01-02T13:18:19.834Z,14.43
2023-01-02T13:20:59.425Z,12.93
2023-01-02T13:23:46.896Z,8.00
2023-01-02T13:26:17.484Z,19.77
2023-01-02T13:29:03.797Z,15.77
2023-01-02T13:31:46.991Z,13.87
2023-01-02T13:34:22.383Z,9.37
2023-01-02T13:36:58.555Z,12.03
2023-01-02T13:39:37.573Z,12.33
2023-01-02T13:42:25.918Z,15.30
2023-01-02T13:44:57.946Z,12.37
2023-01-02T13:47:34.590Z,12.33
2023-01-02T13:50:30.992Z,15.90
2023-01-02T13:53:01.560Z,16.83
2023-01-02T13:55:32.376Z,12.60
2023-01-02T13:58:15.712Z,13.00
2023-01-02T14:00:54.423Z,12.50
2023-01-02T14:03:28.059Z,10.70
2023-01-02T14:06:00.509Z,13.07
2023-01-02T14:08:35.645Z,11.40
2023-01-02T14:11:09.105Z,17.47
2023-01-02T14:13:46.142Z,13.67
2023-01-02T14:16:22.462Z,9.87
2023-01-02T14:19:15.392Z,11.00
2023-01-02T14:21:45.825Z,10.13
2023-01-02T14:24:35.718Z,6.80
2023-01-02T14:27:15.315Z,2.70
2023-01-02T14:30:08.696Z,4.50
2023-01-02T14:32:46.963Z,1.57
2023-01-02T14:35:14.510Z,1.87
2023-01-02T14:37:50.895Z,3.40
2023-01-02T14:40:18.752Z,1.87
2023-01-02T14:43:12.834Z,1.50
2023-01-02T14:45:45.985Z,1.30
2023-01-02T14:48:18.407Z,3.60
2023-01-02T14:50:48.988Z,1.93
2023-01-02T14:53:26.841Z,1.40
2023-01-02T14:55:59.708Z,2.57
2023-01-02T14:58:39.013Z,2.47
2023-01-02T15:01:07.758Z,1.93
2023-01-02T15:04:05.874Z,2.10
2023-01-02T15:06:41.983Z,0.70
2023-01-02T15:09:32.272Z,1.63
2023-01-02T15:12:20.948Z,2.00
2023-01-02T15:14:48.527Z,0.70
2023-01-02T15:17:21.479Z,0.87
2023-01-02T15:19:49.529Z,0.80
2023-01-02T15:22:21.599Z,1.90
2023-01-02T15:24:53.363Z,0.70
2023-01-02T15:27:27.610Z,2.50
2023-01-02T15:29:57.635Z,2.27
2023-01-02T15:32:28.405Z,2.77
2023-01-02T15:35:22.952Z,2.37
2023-01-02T15:37:51.393Z,1.53
2023-01-02T15:40:34.445Z,2.03
2023-01-02T15:43:29.153Z,3.90
2023-01-02T15:45:57.812Z,5.27
2023-01-02T15:48:28.122Z,1.90
2023-01-02T15:50:58.289Z,4.23
2023-01-02T15:53:32.119Z,2.37
2023-01-02T15:56:00.164Z,1.30
2023-01-02T15:58:30.453Z,2.10
2023-01-02T16:01:15.218Z,3.70
2023-01-02T16:04:02.927Z,1.90
2023-01-02T16:06:45.290Z,2.83
2023-01-02T16:09:23.632Z,2.17
2023-01-02T16:11:55.451Z,1.43
2023-01-02T16:14:34.772Z,3.43
2023-01-02T16:17:02.385Z,2.50
2023-01-02T16:19:39.163Z,2.33
2023-01-02T16:22:35.352Z,3.60
2023-01-02T16:25:27.566Z,0.83
2023-01-02T16:28:03.919Z,2.30
2023-01-02T16:31:14.110Z,2.20
2023-01-02T16:33:43.312Z,0.83
2023-01-02T16:36:26.379Z,1.43
2023-01-02T16:39:02.369Z,1.27
2023-01-02T16:41:41.672Z,1.00
2023-01-02T16:44:17.809Z,0.80
2023-01-02T16:46:47.221Z,1.73
2023-01-02T16:49:17.711Z,3.23
2023-01-02T16:51:53.553Z,2.43
2023-01-02T16:54:21.572Z,2.53
2023-01-02T16:56:50.276Z,1.97
2023-01-02T16:59:17.878Z,2.97
2023-01-02T17:01:45.595Z,4.60
2023-01-02T17:04:14.061Z,4.77
2023-01-02T17:06:41.768Z,2.33
2023-01-02T17:09:09.441Z,1.57
2023-01-02T17:11:37.718Z,1.33
2023-01-02T17:14:05.293Z,1.43
2023-01-02T17:16:32.996Z,3.03
2023-01-02T17:19:00.699Z,2.67
2023-01-02T17:21:32.761Z,1.47
2023-01-02T17:24:00.761Z,2.63
2023-01-02T17:26:28.356Z,2.00
2023-01-02T17:28:55.983Z,3.47
2023-01-02T17:31:25.995Z,5.27
2023-01-02T17:33:53.866Z,1.83
2023-01-02T17:36:21.921Z,3.40
2023-01-02T17:38:49.534Z,4.10
2023-01-02T17:41:17.102Z,2.90
2023-01-02T17:44:01.941Z,2.27
2023-01-02T17:49:20.892Z,1.43
2023-01-02T17:51:48.522Z,1.80
2023-01-02T17:54:16.336Z,2.73
2023-01-02T17:56:43.992Z,3.10
2023-01-02T17:59:15.421Z,3.73
2023-01-02T18:01:43.075Z,1.97
2023-01-02T18:04:10.722Z,1.33
2023-01-02T18:06:40.687Z,1.40
2023-01-02T18:09:09.813Z,1.40
2023-01-02T18:11:37.360Z,1.93
2023-01-02T18:14:14.907Z,1.13
2023-01-02T18:16:46.766Z,3.37
2023-01-02T18:19:27.603Z,1.90
2023-01-02T18:21:55.272Z,2.00
2023-01-02T18:24:31.152Z,3.27
2023-01-02T18:27:27.412Z,3.53
2023-01-02T18:29:57.574Z,3.10
2023-01-02T18:32:58.572Z,1.20
2023-01-02T18:38:36.533Z,1.83
2023-01-02T18:41:15.915Z,3.47
2023-01-02T18:43:45.584Z,2.33
2023-01-02T18:47:02.410Z,2.20
2023-01-02T18:49:29.813Z,2.27
2023-01-02T18:52:19.228Z,2.33
2023-01-02T18:55:13.604Z,2.03
2023-01-02T18:57:41.169Z,3.93
2023-01-02T19:00:26.125Z,2.23
2023-01-02T19:03:06.084Z,2.83
2023-01-02T19:05:46.570Z,1.73
2023-01-02T19:08:37.180Z,2.40
2023-01-02T19:11:35.704Z,1.67
2023-01-02T19:14:20.192Z,1.97
2023-01-02T19:16:53.344Z,2.97
2023-01-02T19:19:25.418Z,1.57
2023-01-02T19:21:54.672Z,1.67
2023-01-02T19:24:25.241Z,1.20
2023-01-02T19:26:57.837Z,1.40
2023-01-02T19:29:29.797Z,1.40
2023-01-02T19:32:03.706Z,1.80
2023-01-02T19:34:46.565Z,1.40
2023-01-02T19:37:18.864Z,2.77
2023-01-02T19:39:58.192Z,2.60
2023-01-02T19:42:28.561Z,2.20
2023-01-02T19:44:59.007Z,2.27
2023-01-02T19:47:29.974Z,2.30
2023-01-02T19:49:58.761Z,1.90
2023-01-02T19:52:28.029Z,6.37
2023-01-02T19:54:56.194Z,2.30
2023-01-02T19:57:24.645Z,3.50
2023-01-02T19:59:53.477Z,3.43
2023-01-02T20:02:22.780Z,2.40
2023-01-02T20:04:53.104Z,2.90
2023-01-02T20:07:22.280Z,4.53
2023-01-02T20:09:49.962Z,3.40
2023-01-02T20:12:40.341Z,2.07
2023-01-02T20:15:15.262Z,1.93
2023-01-02T20:17:44.098Z,3.60
2023-01-02T20:20:17.236Z,2.77
2023-01-02T20:22:45.863Z,4.27
2023-01-02T20:25:15.771Z,1.70
2023-01-02T20:27:43.354Z,2.93
2023-01-02T20:30:12.043Z,1.50
2023-01-02T20:32:39.657Z,2.97
2023-01-02T20:35:07.643Z,3.43
2023-01-02T20:37:35.239Z,6.60
2023-01-02T20:40:02.942Z,4.63
2023-01-02T20:42:33.811Z,5.30
2023-01-02T20:45:01.467Z,4.90
2023-01-02T20:47:29.016Z,3.23
2023-01-02T20:49:56.644Z,3.03
2023-01-02T20:52:24.218Z,3.57
2023-01-02T20:54:51.797Z,2.67
2023-01-02T20:57:19.472Z,2.37
2023-01-02T20:59:47.100Z,2.10
2023-01-02T21:02:14.966Z,1.60
2023-01-02T21:04:45.504Z,3.87
2023-01-02T21:07:16.102Z,2.93
2023-01-02T21:09:43.719Z,2.07
2023-01-02T21:12:32.445Z,2.10
2023-01-02T21:15:00.098Z,3.77
2023-01-02T21:17:27.699Z,2.10
2023-01-02T21:19:55.304Z,3.20
2023-01-02T21:22:25.969Z,2.00
2023-01-02T21:24:53.562Z,1.80
2023-01-02T21:27:21.155Z,2.20
2023-01-02T21:29:48.855Z,1.83
2023-01-02T21:32:16.426Z,3.40
2023-01-02T21:34:44.097Z,2.10
2023-01-02T21:37:11.671Z,3.53
2023-01-02T21:39:39.275Z,3.00
2023-01-02T21:42:15.857Z,1.70
2023-01-02T21:44:47.058Z,2.67
2023-01-02T21:47:17.969Z,2.30
2023-01-02T21:49:45.594Z,2.40
2023-01-02T21:52:13.614Z,2.00
2023-01-02T21:54:41.231Z,2.30
2023-01-02T21:57:08.817Z,2.07
2023-01-02T21:59:36.647Z,2.93
2023-01-02T22:02:06.612Z,2.03
2023-01-02T22:04:35.892Z,1.60
2023-01-02T22:09:54.231Z,1.40
2023-01-02T22:12:21.854Z,1.93
2023-01-02T22:14:49.668Z,1.17
2023-01-02T22:17:17.282Z,0.90
2023-01-02T22:19:45.250Z,1.23
2023-01-02T22:22:12.913Z,2.33
2023-01-02T22:24:44.423Z,1.30
2023-01-02T22:27:14.633Z,1.40
2023-01-02T22:30:19.500Z,2.97
2023-01-02T22:32:33.540Z,2.90
2023-01-02T22:35:03.241Z,6.27
2023-01-02T22:37:30.983Z,1.50
2023-01-02T22:40:02.068Z,2.03
2023-01-02T22:43:07.444Z,3.03
2023-01-02T22:45:40.618Z,2.60
2023-01-02T22:48:17.145Z,2.53
2023-01-02T22:50:46.649Z,2.43
2023-01-02T22:53:20.590Z,2.07
2023-01-02T22:55:49.115Z,4.70
2023-01-02T22:58:17.370Z,2.47
2023-01-02T23:00:47.604Z,3.83
2023-01-02T23:03:16.400Z,3.13
2023-01-02T23:05:44.024Z,3.53
2023-01-02T23:08:11.683Z,2.57
2023-01-02T23:10:39.351Z,3.93
2023-01-02T23:13:06.998Z,1.90
2023-01-02T23:15:34.607Z,2.73
2023-01-02T23:18:40.478Z,2.77
2023-01-02T23:21:08.678Z,2.87
2023-01-02T23:23:36.366Z,2.47
2023-01-02T23:26:05.242Z,3.43
2023-01-02T23:29:05.304Z,3.30
2023-01-02T23:31:20.883Z,2.93
2023-01-02T23:33:48.520Z,2.90
2023-01-02T23:36:16.169Z,2.40
2023-01-02T23:38:49.141Z,3.77
2023-01-02T23:41:16.773Z,5.17
2023-01-02T23:43:47.039Z,2.50
2023-01-02T23:46:14.907Z,2.67
2023-01-02T23:48:42.596Z,3.37
2023-01-02T23:51:10.259Z,4.13
2023-01-02T23:53:37.944Z,3.60
2023-01-02T23:56:16.742Z,4.87
2023-01-02T23:58:47.591Z,2.77
